Aérodrome :
LOGIN :

S'inscrire | Disclaimer

   EN    FR    IT 

 










Légende :    VFR   VFR Marginal   IFR   IFR Intensif   IFR Très Intensif
Visi : 
Plafond : 
>= 8 km
>= 3000ft
5 à 8 km
1000 à 3000 ft
1500m à 5 km
500 à 1000 ft
800 à 1500m
200 à 500 ft
< 800m
< 200 ft
Symboles :   Orages  Brouillard  Fortes neiges  Fortes précipitations  Vent > 20 kt
SIGMETs :   Divers  Orages  Givrage  Turbulence  Onde Orograph.  Cendres Volcan.







- Altitude de l'aérodrome : 23 ft
- Code IATA : XFW


EDHI - Hamburg Finkenwerder

DERNIER METAR :
  • 250620Z VRB03KT 8000 -RA FEW005 SCT011 03/03 Q1001

METARs EXPIRÉS :
  • 250550Z 16004KT 130V190 9999 -RA SCT005 BKN007 03/03 Q1001
  • 250541Z 15005KT 9999 -RA SCT005 BKN007 03/03 Q1002
  • 250520Z 15005KT 110V170 9999 FEW005 SCT009 BKN019 03/02 Q1002
  • 250450Z 16004KT 9999 FEW008 BKN013 03/02 Q1002
  • 250420Z VRB03KT 9000 -RA FEW006 BKN017 03/02 Q1002
  • 250350Z 15003KT 9000 -RA FEW007 BKN009 03/02 Q1002

TAF TAF EDHI
Valide du 25 à 06h jusqu'au 25 à 15h UTC


250500Z 2506/2515 VRB03KT 9999 BKN008
TEMPO 2506/2508 27012KT 4500 RA
BECMG 2508/2511 28010KT SCT020
TEMPO 2508/2515 4500 SHRAGS BKN012CB
PROB30
TEMPO 2508/2515 30015G25KT
Pas de NOTAMs connus pour ce terrain.



MET'MAP, la Météo Aéronautique d'un coup d'oeil ! - Copyright ORBIFLY Décembre 2007 - Disclaimer

ORBIFLY MET'MAP TEAM :

Programmation & Développement : Alexandra Zaïnal
Conception & Développement : Baudouin d'Aumeries
Co-Programmation & Développement : Marc-Olivier Méhu
Soutien technique & logistique : Manuel Goepfert

Contact : metmap@orbifly.com




SOURCES & CREDITS :

   NOAA